sensor_id;sensor_type;location;lat;lon;timestamp;temperature;humidity
19340;HTU21D;9804;52.350;6.684;2023-03-01T00:01:05;0.38;-6.00
19340;HTU21D;9804;52.350;6.684;2023-03-01T00:03:32;0.36;-6.00
19340;HTU21D;9804;52.350;6.684;2023-03-01T00:05:57;0.42;-6.00
19340;HTU21D;9804;52.350;6.684;2023-03-01T00:08:23;0.44;-6.00
19340;HTU21D;9804;52.350;6.684;2023-03-01T00:10:49;0.42;-6.00
19340;HTU21D;9804;52.350;6.684;2023-03-01T00:13:14;0.44;-6.00
19340;HTU21D;9804;52.350;6.684;2023-03-01T00:15:40;0.37;-6.00
19340;HTU21D;9804;52.350;6.684;2023-03-01T00:18:07;0.34;-6.00
19340;HTU21D;9804;52.350;6.684;2023-03-01T00:20:33;0.25;-6.00
19340;HTU21D;9804;52.350;6.684;2023-03-01T00:22:58;0.24;-6.00
19340;HTU21D;9804;52.350;6.684;2023-03-01T00:25:24;0.18;-6.00
19340;HTU21D;9804;52.350;6.684;2023-03-01T00:27:49;0.24;-6.00
19340;HTU21D;9804;52.350;6.684;2023-03-01T00:30:15;0.18;-6.00
19340;HTU21D;9804;52.350;6.684;2023-03-01T00:32:40;0.10;-6.00
19340;HTU21D;9804;52.350;6.684;2023-03-01T00:35:06;0.07;-6.00
19340;HTU21D;9804;52.350;6.684;2023-03-01T00:37:31;0.09;-6.00
19340;HTU21D;9804;52.350;6.684;2023-03-01T00:39:57;0.09;-6.00
19340;HTU21D;9804;52.350;6.684;2023-03-01T00:42:22;0.06;-6.00
19340;HTU21D;9804;52.350;6.684;2023-03-01T00:44:48;0.04;-6.00
19340;HTU21D;9804;52.350;6.684;2023-03-01T00:47:13;0.06;-6.00
19340;HTU21D;9804;52.350;6.684;2023-03-01T00:49:39;0.05;-6.00
19340;HTU21D;9804;52.350;6.684;2023-03-01T00:52:04;0.07;-6.00
19340;HTU21D;9804;52.350;6.684;2023-03-01T00:54:30;0.01;-6.00
19340;HTU21D;9804;52.350;6.684;2023-03-01T00:56:55;0.02;-6.00
19340;HTU21D;9804;52.350;6.684;2023-03-01T00:59:21;-0.00;-6.00
19340;HTU21D;9804;52.350;6.684;2023-03-01T01:01:46;0.07;-6.00
19340;HTU21D;9804;52.350;6.684;2023-03-01T01:04:13;0.03;-6.00
19340;HTU21D;9804;52.350;6.684;2023-03-01T01:06:44;0.02;-6.00
19340;HTU21D;9804;52.350;6.684;2023-03-01T01:09:15;0.03;-6.00
19340;HTU21D;9804;52.350;6.684;2023-03-01T01:11:45;-0.02;-6.00
19340;HTU21D;9804;52.350;6.684;2023-03-01T01:14:11;-0.08;-6.00
19340;HTU21D;9804;52.350;6.684;2023-03-01T01:16:37;-0.11;-6.00
19340;HTU21D;9804;52.350;6.684;2023-03-01T01:19:02;-0.13;-6.00
19340;HTU21D;9804;52.350;6.684;2023-03-01T01:21:28;-0.20;-6.00
19340;HTU21D;9804;52.350;6.684;2023-03-01T01:23:55;-0.20;-6.00
19340;HTU21D;9804;52.350;6.684;2023-03-01T01:26:22;-0.22;-6.00
19340;HTU21D;9804;52.350;6.684;2023-03-01T01:28:47;-0.24;-6.00
19340;HTU21D;9804;52.350;6.684;2023-03-01T01:31:13;-0.26;-6.00
19340;HTU21D;9804;52.350;6.684;2023-03-01T01:33:39;-0.28;-6.00
19340;HTU21D;9804;52.350;6.684;2023-03-01T01:36:06;-0.29;-6.00
19340;HTU21D;9804;52.350;6.684;2023-03-01T01:38:32;-0.30;-6.00
19340;HTU21D;9804;52.350;6.684;2023-03-01T01:40:57;-0.35;-6.00
19340;HTU21D;9804;52.350;6.684;2023-03-01T01:43:24;-0.39;-6.00
19340;HTU21D;9804;52.350;6.684;2023-03-01T01:45:57;-0.36;-6.00
19340;HTU21D;9804;52.350;6.684;2023-03-01T01:48:29;-0.35;-6.00
19340;HTU21D;9804;52.350;6.684;2023-03-01T01:51:06;-0.30;-6.00
19340;HTU21D;9804;52.350;6.684;2023-03-01T01:53:32;-0.36;-6.00
19340;HTU21D;9804;52.350;6.684;2023-03-01T01:56:00;-0.35;-6.00
19340;HTU21D;9804;52.350;6.684;2023-03-01T01:58:27;-0.36;-6.00
19340;HTU21D;9804;52.350;6.684;2023-03-01T02:00:54;-0.36;-6.00
19340;HTU21D;9804;52.350;6.684;2023-03-01T02:03:27;-0.34;-6.00
19340;HTU21D;9804;52.350;6.684;2023-03-01T02:06:07;-0.36;-6.00
19340;HTU21D;9804;52.350;6.684;2023-03-01T02:08:38;-0.39;-6.00
19340;HTU21D;9804;52.350;6.684;2023-03-01T02:11:06;-0.41;-6.00
19340;HTU21D;9804;52.350;6.684;2023-03-01T02:13:33;-0.40;-6.00
19340;HTU21D;9804;52.350;6.684;2023-03-01T02:15:59;-0.47;-6.00
19340;HTU21D;9804;52.350;6.684;2023-03-01T02:18:27;-0.47;-6.00
19340;HTU21D;9804;52.350;6.684;2023-03-01T02:24:05;-0.55;-6.00
19340;HTU21D;9804;52.350;6.684;2023-03-01T02:26:52;-0.58;-6.00
19340;HTU21D;9804;52.350;6.684;2023-03-01T02:29:19;-0.61;-6.00
19340;HTU21D;9804;52.350;6.684;2023-03-01T02:31:44;-0.62;-6.00
19340;HTU21D;9804;52.350;6.684;2023-03-01T02:34:13;-0.65;-6.00
19340;HTU21D;9804;52.350;6.684;2023-03-01T02:36:52;-0.66;-6.00
19340;HTU21D;9804;52.350;6.684;2023-03-01T02:39:24;-0.61;-6.00
19340;HTU21D;9804;52.350;6.684;2023-03-01T02:41:52;-0.66;-6.00
19340;HTU21D;9804;52.350;6.684;2023-03-01T02:44:19;-0.67;-6.00
19340;HTU21D;9804;52.350;6.684;2023-03-01T02:46:51;-0.62;-6.00
19340;HTU21D;9804;52.350;6.684;2023-03-01T02:49:28;-0.68;-6.00
19340;HTU21D;9804;52.350;6.684;2023-03-01T02:52:22;-0.73;-6.00
19340;HTU21D;9804;52.350;6.684;2023-03-01T02:54:58;-0.77;-6.00
19340;HTU21D;9804;52.350;6.684;2023-03-01T02:57:27;-0.81;-6.00
19340;HTU21D;9804;52.350;6.684;2023-03-01T02:59:54;-0.80;-6.00
19340;HTU21D;9804;52.350;6.684;2023-03-01T03:02:23;-0.77;-6.00
19340;HTU21D;9804;52.350;6.684;2023-03-01T03:05:13;-0.80;-6.00
19340;HTU21D;9804;52.350;6.684;2023-03-01T03:07:40;-0.82;-6.00
19340;HTU21D;9804;52.350;6.684;2023-03-01T03:10:10;-0.82;-6.00
19340;HTU21D;9804;52.350;6.684;2023-03-01T03:12:36;-0.83;-6.00
19340;HTU21D;9804;52.350;6.684;2023-03-01T03:15:04;-0.85;-6.00
19340;HTU21D;9804;52.350;6.684;2023-03-01T03:17:37;-0.86;-6.00
19340;HTU21D;9804;52.350;6.684;2023-03-01T03:20:05;-0.85;-6.00
19340;HTU21D;9804;52.350;6.684;2023-03-01T03:22:31;-0.86;-6.00
19340;HTU21D;9804;52.350;6.684;2023-03-01T03:24:59;-0.88;-6.00
19340;HTU21D;9804;52.350;6.684;2023-03-01T03:27:24;-0.91;-6.00
19340;HTU21D;9804;52.350;6.684;2023-03-01T03:29:50;-0.97;-6.00
19340;HTU21D;9804;52.350;6.684;2023-03-01T03:32:15;-1.01;-6.00
19340;HTU21D;9804;52.350;6.684;2023-03-01T03:34:40;-1.01;-6.00
19340;HTU21D;9804;52.350;6.684;2023-03-01T03:37:06;-0.99;-6.00
19340;HTU21D;9804;52.350;6.684;2023-03-01T03:39:51;-1.00;-6.00
19340;HTU21D;9804;52.350;6.684;2023-03-01T03:42:20;-1.03;-6.00
19340;HTU21D;9804;52.350;6.684;2023-03-01T03:44:46;-1.01;-6.00
19340;HTU21D;9804;52.350;6.684;2023-03-01T03:47:12;-1.02;-6.00
19340;HTU21D;9804;52.350;6.684;2023-03-01T03:49:40;-1.06;-6.00
19340;HTU21D;9804;52.350;6.684;2023-03-01T03:52:05;-1.08;-6.00
19340;HTU21D;9804;52.350;6.684;2023-03-01T03:54:41;-1.12;-6.00
19340;HTU21D;9804;52.350;6.684;2023-03-01T03:57:06;-1.13;-6.00
19340;HTU21D;9804;52.350;6.684;2023-03-01T03:59:32;-1.15;-6.00
19340;HTU21D;9804;52.350;6.684;2023-03-01T04:01:57;-1.16;-6.00
19340;HTU21D;9804;52.350;6.684;2023-03-01T04:04:23;-1.12;-6.00
19340;HTU21D;9804;52.350;6.684;2023-03-01T04:06:48;-1.15;-6.00
19340;HTU21D;9804;52.350;6.684;2023-03-01T04:09:14;-1.14;-6.00
19340;HTU21D;9804;52.350;6.684;2023-03-01T04:11:39;-1.20;-6.00
19340;HTU21D;9804;52.350;6.684;2023-03-01T04:14:04;-1.27;-6.00
19340;HTU21D;9804;52.350;6.684;2023-03-01T04:16:30;-1.32;-6.00
19340;HTU21D;9804;52.350;6.684;2023-03-01T04:18:55;-1.26;-6.00
19340;HTU21D;9804;52.350;6.684;2023-03-01T04:21:22;-1.27;-6.00
19340;HTU21D;9804;52.350;6.684;2023-03-01T04:23:47;-1.28;-6.00
19340;HTU21D;9804;52.350;6.684;2023-03-01T04:26:13;-1.31;-6.00
19340;HTU21D;9804;52.350;6.684;2023-03-01T04:28:40;-1.32;-6.00
19340;HTU21D;9804;52.350;6.684;2023-03-01T04:31:10;-1.33;-6.00
19340;HTU21D;9804;52.350;6.684;2023-03-01T04:33:52;-1.36;-6.00
19340;HTU21D;9804;52.350;6.684;2023-03-01T04:36:19;-1.36;-6.00
19340;HTU21D;9804;52.350;6.684;2023-03-01T04:38:45;-1.35;-6.00
19340;HTU21D;9804;52.350;6.684;2023-03-01T04:41:16;-1.38;-6.00
19340;HTU21D;9804;52.350;6.684;2023-03-01T04:43:42;-1.45;-6.00
19340;HTU21D;9804;52.350;6.684;2023-03-01T04:46:10;-1.44;-6.00
19340;HTU21D;9804;52.350;6.684;2023-03-01T04:48:37;-1.46;-6.00
19340;HTU21D;9804;52.350;6.684;2023-03-01T04:51:03;-1.49;-6.00
19340;HTU21D;9804;52.350;6.684;2023-03-01T04:53:29;-1.48;-6.00
19340;HTU21D;9804;52.350;6.684;2023-03-01T04:55:55;-1.50;-6.00
19340;HTU21D;9804;52.350;6.684;2023-03-01T04:58:23;-1.48;-6.00
19340;HTU21D;9804;52.350;6.684;2023-03-01T05:00:48;-1.49;-6.00
19340;HTU21D;9804;52.350;6.684;2023-03-01T05:03:14;-1.50;-6.00
19340;HTU21D;9804;52.350;6.684;2023-03-01T05:05:44;-1.52;-6.00
19340;HTU21D;9804;52.350;6.684;2023-03-01T05:08:09;-1.53;-6.00
19340;HTU21D;9804;52.350;6.684;2023-03-01T05:10:43;-1.60;-6.00
19340;HTU21D;9804;52.350;6.684;2023-03-01T05:13:09;-1.57;-6.00
19340;HTU21D;9804;52.350;6.684;2023-03-01T05:15:34;-1.59;-6.00
19340;HTU21D;9804;52.350;6.684;2023-03-01T05:18:02;-1.61;-6.00
19340;HTU21D;9804;52.350;6.684;2023-03-01T05:20:29;-1.64;-6.00
19340;HTU21D;9804;52.350;6.684;2023-03-01T05:22:57;-1.63;-6.00
19340;HTU21D;9804;52.350;6.684;2023-03-01T05:25:24;-1.67;-6.00
19340;HTU21D;9804;52.350;6.684;2023-03-01T05:27:50;-1.65;-6.00
19340;HTU21D;9804;52.350;6.684;2023-03-01T05:30:16;-1.65;-6.00
19340;HTU21D;9804;52.350;6.684;2023-03-01T05:32:44;-1.71;-6.00
19340;HTU21D;9804;52.350;6.684;2023-03-01T05:35:15;-1.73;-6.00
19340;HTU21D;9804;52.350;6.684;2023-03-01T05:37:46;-1.67;-6.00
19340;HTU21D;9804;52.350;6.684;2023-03-01T05:40:15;-1.65;-6.00
19340;HTU21D;9804;52.350;6.684;2023-03-01T05:42:54;-1.73;-6.00
19340;HTU21D;9804;52.350;6.684;2023-03-01T05:45:21;-1.78;-6.00
19340;HTU21D;9804;52.350;6.684;2023-03-01T05:47:48;-1.78;-6.00
19340;HTU21D;9804;52.350;6.684;2023-03-01T05:50:16;-1.75;-6.00
19340;HTU21D;9804;52.350;6.684;2023-03-01T05:52:52;-1.78;-6.00
19340;HTU21D;9804;52.350;6.684;2023-03-01T05:55:20;-1.76;-6.00
19340;HTU21D;9804;52.350;6.684;2023-03-01T05:57:46;-1.75;-6.00
19340;HTU21D;9804;52.350;6.684;2023-03-01T06:00:13;-1.85;-6.00
19340;HTU21D;9804;52.350;6.684;2023-03-01T06:02:40;-1.83;-6.00
19340;HTU21D;9804;52.350;6.684;2023-03-01T06:05:07;-1.78;-6.00
19340;HTU21D;9804;52.350;6.684;2023-03-01T06:07:33;-1.80;-6.00
19340;HTU21D;9804;52.350;6.684;2023-03-01T06:09:58;-1.85;-6.00
19340;HTU21D;9804;52.350;6.684;2023-03-01T06:12:24;-1.90;-6.00
19340;HTU21D;9804;52.350;6.684;2023-03-01T06:14:49;-1.89;-6.00
19340;HTU21D;9804;52.350;6.684;2023-03-01T06:17:15;-1.89;-6.00
19340;HTU21D;9804;52.350;6.684;2023-03-01T06:19:40;-1.84;-6.00
19340;HTU21D;9804;52.350;6.684;2023-03-01T06:22:06;-1.80;-6.00
19340;HTU21D;9804;52.350;6.684;2023-03-01T06:24:32;-1.77;-6.00
19340;HTU21D;9804;52.350;6.684;2023-03-01T06:26:58;-1.85;-6.00
19340;HTU21D;9804;52.350;6.684;2023-03-01T06:29:23;-1.79;-6.00
19340;HTU21D;9804;52.350;6.684;2023-03-01T06:31:49;-1.78;-6.00
19340;HTU21D;9804;52.350;6.684;2023-03-01T06:34:14;-1.80;-6.00
19340;HTU21D;9804;52.350;6.684;2023-03-01T06:36:40;-1.79;-6.00
19340;HTU21D;9804;52.350;6.684;2023-03-01T06:39:06;-1.80;-6.00
19340;HTU21D;9804;52.350;6.684;2023-03-01T06:41:32;-1.85;-6.00
19340;HTU21D;9804;52.350;6.684;2023-03-01T06:43:58;-1.80;-6.00
19340;HTU21D;9804;52.350;6.684;2023-03-01T06:46:24;-1.76;-6.00
19340;HTU21D;9804;52.350;6.684;2023-03-01T06:48:49;-1.76;-6.00
19340;HTU21D;9804;52.350;6.684;2023-03-01T06:51:14;-1.77;-6.00
19340;HTU21D;9804;52.350;6.684;2023-03-01T06:53:40;-1.70;-6.00
19340;HTU21D;9804;52.350;6.684;2023-03-01T06:56:05;-1.63;-6.00
19340;HTU21D;9804;52.350;6.684;2023-03-01T06:58:31;-1.58;-6.00
19340;HTU21D;9804;52.350;6.684;2023-03-01T07:00:56;-1.49;-6.00
19340;HTU21D;9804;52.350;6.684;2023-03-01T07:03:21;-1.46;-6.00
19340;HTU21D;9804;52.350;6.684;2023-03-01T07:05:50;-1.43;-6.00
19340;HTU21D;9804;52.350;6.684;2023-03-01T07:08:20;-1.42;-6.00
19340;HTU21D;9804;52.350;6.684;2023-03-01T07:10:45;-1.30;-6.00
19340;HTU21D;9804;52.350;6.684;2023-03-01T07:13:11;-1.21;-6.00
19340;HTU21D;9804;52.350;6.684;2023-03-01T07:15:36;-1.15;-6.00
19340;HTU21D;9804;52.350;6.684;2023-03-01T07:18:02;-1.14;-6.00
19340;HTU21D;9804;52.350;6.684;2023-03-01T07:20:27;-1.06;-6.00
19340;HTU21D;9804;52.350;6.684;2023-03-01T07:22:54;-1.01;-6.00
19340;HTU21D;9804;52.350;6.684;2023-03-01T07:25:20;-0.89;-6.00
19340;HTU21D;9804;52.350;6.684;2023-03-01T07:27:49;-0.76;-6.00
19340;HTU21D;9804;52.350;6.684;2023-03-01T07:30:15;-0.69;-6.00
19340;HTU21D;9804;52.350;6.684;2023-03-01T07:32:41;-0.59;-6.00
19340;HTU21D;9804;52.350;6.684;2023-03-01T07:35:07;-0.55;-6.00
19340;HTU21D;9804;52.350;6.684;2023-03-01T07:37:32;-0.45;-6.00
19340;HTU21D;9804;52.350;6.684;2023-03-01T07:39:57;-0.25;-6.00
19340;HTU21D;9804;52.350;6.684;2023-03-01T07:42:23;-0.10;-6.00
19340;HTU21D;9804;52.350;6.684;2023-03-01T07:44:48;0.02;-6.00
19340;HTU21D;9804;52.350;6.684;2023-03-01T07:47:13;0.12;-6.00
19340;HTU21D;9804;52.350;6.684;2023-03-01T07:49:39;0.17;-6.00
19340;HTU21D;9804;52.350;6.684;2023-03-01T07:52:04;0.36;-6.00
19340;HTU21D;9804;52.350;6.684;2023-03-01T07:54:30;0.50;-6.00
19340;HTU21D;9804;52.350;6.684;2023-03-01T07:56:56;0.55;-6.00
19340;HTU21D;9804;52.350;6.684;2023-03-01T07:59:21;0.74;-6.00
19340;HTU21D;9804;52.350;6.684;2023-03-01T08:01:48;0.91;-6.00
19340;HTU21D;9804;52.350;6.684;2023-03-01T08:04:14;1.06;-6.00
19340;HTU21D;9804;52.350;6.684;2023-03-01T08:06:39;1.12;-6.00
19340;HTU21D;9804;52.350;6.684;2023-03-01T08:09:05;1.27;-6.00
19340;HTU21D;9804;52.350;6.684;2023-03-01T08:11:30;1.48;-6.00
19340;HTU21D;9804;52.350;6.684;2023-03-01T08:13:56;1.64;-6.00
19340;HTU21D;9804;52.350;6.684;2023-03-01T08:16:22;1.82;-6.00
19340;HTU21D;9804;52.350;6.684;2023-03-01T08:18:48;1.91;-6.00
19340;HTU21D;9804;52.350;6.684;2023-03-01T08:21:18;1.86;-6.00
19340;HTU21D;9804;52.350;6.684;2023-03-01T08:23:43;1.90;-6.00
19340;HTU21D;9804;52.350;6.684;2023-03-01T08:26:11;2.06;-6.00
19340;HTU21D;9804;52.350;6.684;2023-03-01T08:28:37;2.16;-6.00
19340;HTU21D;9804;52.350;6.684;2023-03-01T08:31:13;2.53;-6.00
19340;HTU21D;9804;52.350;6.684;2023-03-01T08:33:39;2.62;-6.00
19340;HTU21D;9804;52.350;6.684;2023-03-01T08:36:05;2.80;-6.00
19340;HTU21D;9804;52.350;6.684;2023-03-01T08:38:32;3.08;-6.00
19340;HTU21D;9804;52.350;6.684;2023-03-01T08:41:00;3.26;-6.00
19340;HTU21D;9804;52.350;6.684;2023-03-01T08:43:25;3.33;-6.00
19340;HTU21D;9804;52.350;6.684;2023-03-01T08:45:51;3.46;-6.00
19340;HTU21D;9804;52.350;6.684;2023-03-01T08:48:16;3.60;-6.00
19340;HTU21D;9804;52.350;6.684;2023-03-01T08:50:42;3.69;-6.00
19340;HTU21D;9804;52.350;6.684;2023-03-01T08:53:07;3.83;-6.00
19340;HTU21D;9804;52.350;6.684;2023-03-01T08:55:32;3.75;-6.00
19340;HTU21D;9804;52.350;6.684;2023-03-01T08:57:58;3.86;-6.00
19340;HTU21D;9804;52.350;6.684;2023-03-01T09:00:24;4.00;-6.00
19340;HTU21D;9804;52.350;6.684;2023-03-01T09:02:50;3.99;-6.00
19340;HTU21D;9804;52.350;6.684;2023-03-01T09:05:15;4.09;-6.00
19340;HTU21D;9804;52.350;6.684;2023-03-01T09:07:41;4.10;-6.00
19340;HTU21D;9804;52.350;6.684;2023-03-01T09:10:06;4.42;-6.00
19340;HTU21D;9804;52.350;6.684;2023-03-01T09:12:32;4.50;-6.00
19340;HTU21D;9804;52.350;6.684;2023-03-01T09:14:57;4.45;-6.00
19340;HTU21D;9804;52.350;6.684;2023-03-01T09:17:23;4.64;-6.00
19340;HTU21D;9804;52.350;6.684;2023-03-01T09:19:48;4.89;-6.00
19340;HTU21D;9804;52.350;6.684;2023-03-01T09:22:14;4.94;-6.00
19340;HTU21D;9804;52.350;6.684;2023-03-01T09:24:39;5.06;-6.00
19340;HTU21D;9804;52.350;6.684;2023-03-01T09:27:05;5.04;-6.00
19340;HTU21D;9804;52.350;6.684;2023-03-01T09:29:36;5.24;-6.00
19340;HTU21D;9804;52.350;6.684;2023-03-01T09:32:02;5.49;-6.00
19340;HTU21D;9804;52.350;6.684;2023-03-01T09:34:27;5.47;-6.00
19340;HTU21D;9804;52.350;6.684;2023-03-01T09:36:53;5.49;-6.00
19340;HTU21D;9804;52.350;6.684;2023-03-01T09:39:19;5.60;-6.00
19340;HTU21D;9804;52.350;6.684;2023-03-01T09:41:59;5.72;-6.00
19340;HTU21D;9804;52.350;6.684;2023-03-01T09:44:38;5.74;-6.00
19340;HTU21D;9804;52.350;6.684;2023-03-01T09:47:08;5.86;-6.00
19340;HTU21D;9804;52.350;6.684;2023-03-01T09:49:36;5.97;-6.00
19340;HTU21D;9804;52.350;6.684;2023-03-01T09:52:29;6.11;-6.00
19340;HTU21D;9804;52.350;6.684;2023-03-01T09:54:58;6.37;-6.00
19340;HTU21D;9804;52.350;6.684;2023-03-01T09:57:41;6.28;-6.00
19340;HTU21D;9804;52.350;6.684;2023-03-01T10:00:33;6.42;-6.00
19340;HTU21D;9804;52.350;6.684;2023-03-01T10:03:10;6.41;-6.00
19340;HTU21D;9804;52.350;6.684;2023-03-01T10:05:56;6.46;-6.00
19340;HTU21D;9804;52.350;6.684;2023-03-01T10:08:47;6.68;-6.00
19340;HTU21D;9804;52.350;6.684;2023-03-01T10:16:48;6.71;-6.00
19340;HTU21D;9804;52.350;6.684;2023-03-01T10:19:24;6.71;-6.00
19340;HTU21D;9804;52.350;6.684;2023-03-01T10:21:52;6.84;-6.00
19340;HTU21D;9804;52.350;6.684;2023-03-01T10:24:19;6.84;-6.00
19340;HTU21D;9804;52.350;6.684;2023-03-01T10:26:54;6.88;-6.00
19340;HTU21D;9804;52.350;6.684;2023-03-01T10:29:24;6.87;-6.00
19340;HTU21D;9804;52.350;6.684;2023-03-01T10:31:52;6.81;-6.00
19340;HTU21D;9804;52.350;6.684;2023-03-01T10:34:27;6.81;-6.00
19340;HTU21D;9804;52.350;6.684;2023-03-01T10:36:56;7.01;-6.00
19340;HTU21D;9804;52.350;6.684;2023-03-01T10:39:24;7.13;-6.00
19340;HTU21D;9804;52.350;6.684;2023-03-01T10:42:01;7.11;-6.00
19340;HTU21D;9804;52.350;6.684;2023-03-01T10:44:47;7.25;-6.00
19340;HTU21D;9804;52.350;6.684;2023-03-01T10:47:20;7.44;-6.00
19340;HTU21D;9804;52.350;6.684;2023-03-01T10:50:01;7.35;-6.00
19340;HTU21D;9804;52.350;6.684;2023-03-01T10:52:33;7.34;-6.00
19340;HTU21D;9804;52.350;6.684;2023-03-01T10:55:02;7.40;-6.00
19340;HTU21D;9804;52.350;6.684;2023-03-01T10:57:31;7.31;-6.00
19340;HTU21D;9804;52.350;6.684;2023-03-01T11:00:24;7.72;-6.00
19340;HTU21D;9804;52.350;6.684;2023-03-01T11:05:24;7.58;-6.00
19340;HTU21D;9804;52.350;6.684;2023-03-01T11:07:58;8.05;-6.00
19340;HTU21D;9804;52.350;6.684;2023-03-01T11:10:26;7.71;-6.00
19340;HTU21D;9804;52.350;6.684;2023-03-01T11:12:53;8.01;-6.00
19340;HTU21D;9804;52.350;6.684;2023-03-01T11:15:25;8.00;-6.00
19340;HTU21D;9804;52.350;6.684;2023-03-01T11:17:51;8.13;-6.00
19340;HTU21D;9804;52.350;6.684;2023-03-01T11:20:32;8.33;-6.00
19340;HTU21D;9804;52.350;6.684;2023-03-01T11:23:03;8.20;-6.00
19340;HTU21D;9804;52.350;6.684;2023-03-01T11:25:36;8.11;-6.00
19340;HTU21D;9804;52.350;6.684;2023-03-01T11:28:07;8.08;-6.00
19340;HTU21D;9804;52.350;6.684;2023-03-01T11:30:58;7.87;-6.00
19340;HTU21D;9804;52.350;6.684;2023-03-01T11:38:53;8.05;-6.00
19340;HTU21D;9804;52.350;6.684;2023-03-01T11:41:23;8.01;-6.00
19340;HTU21D;9804;52.350;6.684;2023-03-01T11:44:00;8.22;-6.00
19340;HTU21D;9804;52.350;6.684;2023-03-01T11:54:27;8.68;-6.00
19340;HTU21D;9804;52.350;6.684;2023-03-01T11:56:57;8.87;-6.00
19340;HTU21D;9804;52.350;6.684;2023-03-01T12:10:22;8.42;-6.00
19340;HTU21D;9804;52.350;6.684;2023-03-01T12:26:39;8.94;-6.00
19340;HTU21D;9804;52.350;6.684;2023-03-01T12:29:19;9.16;-6.00
19340;HTU21D;9804;52.350;6.684;2023-03-01T12:45:55;9.24;-6.00
19340;HTU21D;9804;52.350;6.684;2023-03-01T12:48:35;9.30;-6.00
19340;HTU21D;9804;52.350;6.684;2023-03-01T12:51:06;9.47;-6.00
19340;HTU21D;9804;52.350;6.684;2023-03-01T12:53:36;9.49;-6.00
19340;HTU21D;9804;52.350;6.684;2023-03-01T12:56:08;9.38;-6.00
19340;HTU21D;9804;52.350;6.684;2023-03-01T12:59:02;9.41;-6.00
19340;HTU21D;9804;52.350;6.684;2023-03-01T13:01:41;9.55;-6.00
19340;HTU21D;9804;52.350;6.684;2023-03-01T13:07:30;9.63;-6.00
19340;HTU21D;9804;52.350;6.684;2023-03-01T13:10:21;9.71;-6.00
19340;HTU21D;9804;52.350;6.684;2023-03-01T13:12:56;9.65;-6.00
19340;HTU21D;9804;52.350;6.684;2023-03-01T13:15:31;9.59;-6.00
19340;HTU21D;9804;52.350;6.684;2023-03-01T13:18:03;9.93;-6.00
19340;HTU21D;9804;52.350;6.684;2023-03-01T13:20:33;9.77;-6.00
19340;HTU21D;9804;52.350;6.684;2023-03-01T13:23:09;9.86;-6.00
19340;HTU21D;9804;52.350;6.684;2023-03-01T13:29:12;9.98;-6.00
19340;HTU21D;9804;52.350;6.684;2023-03-01T13:33:59;9.80;-6.00
19340;HTU21D;9804;52.350;6.684;2023-03-01T13:46:47;10.18;-6.00
19340;HTU21D;9804;52.350;6.684;2023-03-01T13:49:18;10.06;-6.00
19340;HTU21D;9804;52.350;6.684;2023-03-01T13:51:50;10.07;-6.00
19340;HTU21D;9804;52.350;6.684;2023-03-01T13:54:22;9.91;-6.00
19340;HTU21D;9804;52.350;6.684;2023-03-01T13:56:50;9.93;-6.00
19340;HTU21D;9804;52.350;6.684;2023-03-01T13:59:20;9.93;-6.00
19340;HTU21D;9804;52.350;6.684;2023-03-01T14:02:12;9.91;-6.00
19340;HTU21D;9804;52.350;6.684;2023-03-01T14:04:38;10.08;-6.00
19340;HTU21D;9804;52.350;6.684;2023-03-01T14:07:19;10.11;-6.00
19340;HTU21D;9804;52.350;6.684;2023-03-01T14:09:47;10.21;-6.00
19340;HTU21D;9804;52.350;6.684;2023-03-01T14:16:29;10.18;-6.00
19340;HTU21D;9804;52.350;6.684;2023-03-01T14:18:47;10.09;-6.00
19340;HTU21D;9804;52.350;6.684;2023-03-01T14:21:14;10.05;-6.00
19340;HTU21D;9804;52.350;6.684;2023-03-01T14:23:41;10.14;-6.00
19340;HTU21D;9804;52.350;6.684;2023-03-01T14:26:08;9.91;-6.00
19340;HTU21D;9804;52.350;6.684;2023-03-01T14:28:36;9.99;-6.00
19340;HTU21D;9804;52.350;6.684;2023-03-01T14:31:31;10.07;-6.00
19340;HTU21D;9804;52.350;6.684;2023-03-01T14:33:57;10.08;-6.00
19340;HTU21D;9804;52.350;6.684;2023-03-01T14:36:28;9.89;-6.00
19340;HTU21D;9804;52.350;6.684;2023-03-01T14:38:54;9.97;-6.00
19340;HTU21D;9804;52.350;6.684;2023-03-01T14:41:25;10.13;-6.00
19340;HTU21D;9804;52.350;6.684;2023-03-01T14:43:58;9.92;-6.00
19340;HTU21D;9804;52.350;6.684;2023-03-01T14:46:26;10.11;-6.00
19340;HTU21D;9804;52.350;6.684;2023-03-01T14:49:02;10.15;-6.00
19340;HTU21D;9804;52.350;6.684;2023-03-01T14:51:28;10.26;-6.00
19340;HTU21D;9804;52.350;6.684;2023-03-01T14:53:54;9.93;-6.00
19340;HTU21D;9804;52.350;6.684;2023-03-01T14:56:19;10.01;-6.00
19340;HTU21D;9804;52.350;6.684;2023-03-01T14:58:45;10.16;-6.00
19340;HTU21D;9804;52.350;6.684;2023-03-01T15:01:15;10.27;-6.00
19340;HTU21D;9804;52.350;6.684;2023-03-01T15:03:44;10.16;-6.00
19340;HTU21D;9804;52.350;6.684;2023-03-01T15:06:10;9.94;-6.00
19340;HTU21D;9804;52.350;6.684;2023-03-01T15:08:42;9.92;-6.00
19340;HTU21D;9804;52.350;6.684;2023-03-01T15:13:38;9.74;-6.00
19340;HTU21D;9804;52.350;6.684;2023-03-01T15:16:10;9.80;-6.00
19340;HTU21D;9804;52.350;6.684;2023-03-01T15:18:37;9.75;-6.00
19340;HTU21D;9804;52.350;6.684;2023-03-01T15:21:08;9.55;-6.00
19340;HTU21D;9804;52.350;6.684;2023-03-01T15:23:36;9.72;-6.00
19340;HTU21D;9804;52.350;6.684;2023-03-01T15:26:03;9.90;-6.00
19340;HTU21D;9804;52.350;6.684;2023-03-01T15:28:34;9.59;-6.00
19340;HTU21D;9804;52.350;6.684;2023-03-01T15:31:19;9.81;-6.00
19340;HTU21D;9804;52.350;6.684;2023-03-01T15:33:46;10.03;-6.00
19340;HTU21D;9804;52.350;6.684;2023-03-01T15:36:39;10.13;-6.00
19340;HTU21D;9804;52.350;6.684;2023-03-01T15:41:52;9.95;-6.00
19340;HTU21D;9804;52.350;6.684;2023-03-01T15:44:29;9.71;-6.00
19340;HTU21D;9804;52.350;6.684;2023-03-01T15:46:55;9.71;-6.00
19340;HTU21D;9804;52.350;6.684;2023-03-01T15:51:53;9.63;-6.00
19340;HTU21D;9804;52.350;6.684;2023-03-01T15:54:22;9.53;-6.00
19340;HTU21D;9804;52.350;6.684;2023-03-01T15:56:48;9.65;-6.00
19340;HTU21D;9804;52.350;6.684;2023-03-01T15:59:14;9.81;-6.00
19340;HTU21D;9804;52.350;6.684;2023-03-01T16:01:43;9.42;-6.00
19340;HTU21D;9804;52.350;6.684;2023-03-01T16:04:10;9.70;-6.00
19340;HTU21D;9804;52.350;6.684;2023-03-01T16:06:38;9.54;-6.00
19340;HTU21D;9804;52.350;6.684;2023-03-01T16:09:04;9.65;-6.00
19340;HTU21D;9804;52.350;6.684;2023-03-01T16:11:30;9.90;-6.00
19340;HTU21D;9804;52.350;6.684;2023-03-01T16:13:57;9.94;-6.00
19340;HTU21D;9804;52.350;6.684;2023-03-01T16:16:23;9.89;-6.00
19340;HTU21D;9804;52.350;6.684;2023-03-01T16:18:48;10.22;-6.00
19340;HTU21D;9804;52.350;6.684;2023-03-01T16:21:16;10.41;-6.00
19340;HTU21D;9804;52.350;6.684;2023-03-01T16:23:43;9.93;-6.00
19340;HTU21D;9804;52.350;6.684;2023-03-01T16:26:09;10.11;-6.00
19340;HTU21D;9804;52.350;6.684;2023-03-01T16:28:35;10.26;-6.00
19340;HTU21D;9804;52.350;6.684;2023-03-01T16:31:00;10.39;-6.00
19340;HTU21D;9804;52.350;6.684;2023-03-01T16:33:26;10.14;-6.00
19340;HTU21D;9804;52.350;6.684;2023-03-01T16:35:52;10.13;-6.00
19340;HTU21D;9804;52.350;6.684;2023-03-01T16:38:17;10.03;-6.00
19340;HTU21D;9804;52.350;6.684;2023-03-01T16:40:47;9.83;-6.00
19340;HTU21D;9804;52.350;6.684;2023-03-01T16:43:13;9.83;-6.00
19340;HTU21D;9804;52.350;6.684;2023-03-01T16:45:38;9.66;-6.00
19340;HTU21D;9804;52.350;6.684;2023-03-01T16:48:06;9.63;-6.00
19340;HTU21D;9804;52.350;6.684;2023-03-01T16:50:31;9.68;-6.00
19340;HTU21D;9804;52.350;6.684;2023-03-01T16:52:57;9.57;-6.00
19340;HTU21D;9804;52.350;6.684;2023-03-01T16:55:22;9.61;-6.00
19340;HTU21D;9804;52.350;6.684;2023-03-01T16:57:48;9.31;-6.00
19340;HTU21D;9804;52.350;6.684;2023-03-01T17:00:14;9.18;-6.00
19340;HTU21D;9804;52.350;6.684;2023-03-01T17:02:41;9.09;-6.00
19340;HTU21D;9804;52.350;6.684;2023-03-01T17:05:07;8.68;-6.00
19340;HTU21D;9804;52.350;6.684;2023-03-01T17:07:33;8.74;-6.00
19340;HTU21D;9804;52.350;6.684;2023-03-01T17:10:04;8.70;-6.00
19340;HTU21D;9804;52.350;6.684;2023-03-01T17:12:29;8.58;-6.00
19340;HTU21D;9804;52.350;6.684;2023-03-01T17:14:55;8.46;-6.00
19340;HTU21D;9804;52.350;6.684;2023-03-01T17:17:20;8.28;-6.00
19340;HTU21D;9804;52.350;6.684;2023-03-01T17:19:46;8.07;-6.00
19340;HTU21D;9804;52.350;6.684;2023-03-01T17:22:11;7.83;-6.00